Flight Track Log - Related Links

Times and Time Zones

All times are in EDT time to prevent confusion due to time zone crossing. See the UPS32 flight status page for this flight to view local times or setup timezone preferences in your user account.


Time Position Orientation Groundspeed Altitude Reporting Facility
EDT Latitude Longitude Course Direction KTS MPH feet Rate Location/Type
Sun 05:50:22 AM 38.1670 -85.7420 167° South 177 204 500  Level FlightAware ADS-B
Sun 05:51:02 AM 38.1360 -85.7470 187° South 170 196 2,400 2,291 Climbing FlightAware ADS-B
Sun 05:51:17 AM 38.1290 -85.7600 236° Southwest 197 227 2,600 800 Climbing FlightAware ADS-B
Sun 05:51:32 AM 38.1210 -85.7760 238° Southwest 222 255 2,800 1,050 Climbing FlightAware ADS-B
Sun 05:51:57 AM 38.1080 -85.8050 240° Southwest 254 292 3,300 2,291 Climbing FlightAware ADS-B
Sun 05:52:27 AM 38.0910 -85.8450 242° Southwest 251 289 4,900 3,055 Climbing FlightAware ADS-B
Sun 05:52:52 AM 38.0780 -85.8810 245° Southwest 260 299 6,100 2,727 Climbing FlightAware ADS-B
Sun 05:53:22 AM 38.0770 -85.9270 268° West 268 308 7,400 2,700 Climbing FlightAware ADS-B
Sun 05:53:52 AM 38.0770 -85.9750 270° West 270 311 8,800 2,618 Climbing FlightAware ADS-B
Sun 05:54:17 AM 38.0780 -86.0140 272° West 279 321 9,800 1,457 Climbing FlightAware ADS-B
Sun 05:55:02 AM 38.0880 -86.0930 279° West 330 380 10,500 1,271 Climbing FlightAware ADS-B
Sun 05:55:42 AM 38.1000 -86.1680 282° West 353 406 11,600 1,425 Climbing FlightAware ADS-B
Sun 05:56:22 AM 38.1150 -86.2580 282° West 388 447 12,400 1,650 Climbing FlightAware ADS-B
Sun 05:57:02 AM 38.1290 -86.3510 281° West 398 458 13,800 1,906 Climbing FlightAware ADS-B
Sun 05:57:47 AM 38.1420 -86.4540 279° West 416 479 15,100 1,800 Climbing FlightAware ADS-B
Sun 05:58:22 AM 38.1540 -86.5370 280° West 422 486 16,200 1,835 Climbing FlightAware ADS-B
Sun 05:59:12 AM 38.1720 -86.6630 280° West 435 501 17,700 1,733 Climbing FlightAware ADS-B
Sun 05:59:52 AM 38.1860 -86.7600 280° West 441 507 18,800 1,694 Climbing FlightAware ADS-B
Sun 06:00:37 AM 38.2030 -86.8810 280° West 450 518 20,100 1,694 Climbing FlightAware ADS-B
Sun 06:01:17 AM 38.2180 -86.9860 280° West 454 522 21,200 1,482 Climbing FlightAware ADS-B
Sun 06:02:02 AM 38.2350 -87.1050 280° West 463 533 22,200 1,200 Climbing FlightAware ADS-B
Sun 06:02:42 AM 38.2500 -87.2170 280° West 475 547 22,900 1,200 Climbing FlightAware ADS-B
Sun 06:03:22 AM 38.2660 -87.3280 280° West 481 554 23,800 1,341 Climbing FlightAware ADS-B
Sun 06:04:07 AM 38.2820 -87.4480 280° West 484 557 24,800 1,482 Climbing FlightAware ADS-B
Sun 06:04:47 AM 38.2980 -87.5630 280° West 482 555 25,900 1,765 Climbing FlightAware ADS-B
Sun 06:05:32 AM 38.3140 -87.6880 279° West 475 547 27,300 1,624 Climbing FlightAware ADS-B
Sun 06:06:12 AM 38.3290 -87.7990 280° West 477 549 28,200 1,500 Climbing FlightAware ADS-B
Sun 06:06:52 AM 38.3440 -87.9090 280° West 471 542 29,300 1,271 Climbing FlightAware ADS-B
Sun 06:07:37 AM 38.3600 -88.0290 280° West 470 541 30,000 494 Climbing FlightAware ADS-B
Sun 06:08:17 AM 38.3740 -88.1380 279° West 470 541 30,000  Level FlightAware ADS-B
Sun 06:09:02 AM 38.3890 -88.2580 279° West 472 543 30,000  Level FlightAware ADS-B
Sun 06:09:42 AM 38.4040 -88.3740 279° West 471 542 30,000  Level FlightAware ADS-B
Sun 06:10:22 AM 38.4180 -88.4830 279° West 471 542 30,000  Level FlightAware ADS-B
Sun 06:11:07 AM 38.4330 -88.6040 279° West 474 545 30,000  Level FlightAware ADS-B
Sun 06:11:47 AM 38.4480 -88.7170 280° West 473 544 30,000  Level FlightAware ADS-B
Sun 06:12:32 AM 38.4630 -88.8360 279° West 472 543 30,000  Level FlightAware ADS-B
Sun 06:13:12 AM 38.4770 -88.9550 279° West 473 544 30,000  Level FlightAware ADS-B
Sun 06:13:52 AM 38.4900 -89.0620 279° West 473 544 30,000  Level FlightAware ADS-B
Sun 06:14:37 AM 38.5050 -89.1840 279° West 474 545 30,000  Level FlightAware ADS-B
Sun 06:15:17 AM 38.5180 -89.2920 279° West 475 547 30,000  Level FlightAware ADS-B
Sun 06:15:57 AM 38.5310 -89.4050 278° West 475 547 30,000  Level FlightAware ADS-B
Sun 06:16:42 AM 38.5460 -89.5330 279° West 475 547 30,000  Level FlightAware ADS-B
Sun 06:17:22 AM 38.5590 -89.6440 279° West 475 547 30,000 565 Level FlightAware ADS-B
Sun 06:18:07 AM 38.5740 -89.7710 279° West 475 547 30,800 1,059 Climbing FlightAware ADS-B
Sun 06:18:47 AM 38.5860 -89.8760 278° West 475 547 31,500 900 Climbing FlightAware ADS-B
Sun 06:19:27 AM 38.5990 -89.9880 278° West 476 548 32,000 353 Climbing FlightAware ADS-B
Sun 06:20:12 AM 38.6130 -90.1130 278° West 478 550 32,000  Level FlightAware ADS-B
Sun 06:20:52 AM 38.6260 -90.2280 278° West 482 555 32,000  Level FlightAware ADS-B
Sun 06:21:37 AM 38.6400 -90.3550 278° West 482 555 32,000  Level FlightAware ADS-B
Sun 06:22:17 AM 38.6520 -90.4680 278° West 483 556 32,000  Level FlightAware ADS-B
Sun 06:22:57 AM 38.6650 -90.5810 278° West 484 557 32,000  Level FlightAware ADS-B
Sun 06:23:42 AM 38.6780 -90.7060 278° West 484 557 32,000  Level FlightAware ADS-B
Sun 06:24:22 AM 38.6900 -90.8200 278° West 483 556 32,000  Level FlightAware ADS-B
Sun 06:25:07 AM 38.7040 -90.9520 278° West 480 552 32,000  Level FlightAware ADS-B
Sun 06:25:47 AM 38.7150 -91.0620 277° West 479 551 32,000  Level FlightAware ADS-B
Sun 06:26:27 AM 38.7270 -91.1740 278° West 478 550 32,000  Level FlightAware ADS-B
Sun 06:27:07 AM 38.7380 -91.2870 277° West 480 552 32,000  Level FlightAware ADS-B
Sun 06:27:47 AM 38.7480 -91.3890 277° West 480 552 32,000  Level FlightAware ADS-B
Sun 06:28:37 AM 38.7600 -91.5090 277° West 480 552 32,000  Level FlightAware ADS-B
Sun 06:29:17 AM 38.7690 -91.6050 277° West 480 552 32,000  Level FlightAware ADS-B
Sun 06:29:57 AM 38.7780 -91.7010 277° West 480 552 32,000  Level FlightAware ADS-B
Sun 06:30:37 AM 38.7870 -91.7980 277° West 480 552 32,000  Level FlightAware ADS-B
Sun 06:31:17 AM 38.7970 -91.8940 278° West 480 552 32,000  Level FlightAware ADS-B
Sun 06:32:07 AM 38.8080 -92.0140 277° West 480 552 32,000  Level FlightAware ADS-B
Sun 06:32:47 AM 38.8170 -92.1100 277° West 480 552 32,000  Level FlightAware ADS-B
Sun 06:33:27 AM 38.8270 -92.2060 278° West 480 552 32,000  Level FlightAware ADS-B
Sun 06:34:07 AM 38.8360 -92.3020 277° West 480 552 32,000  Level FlightAware ADS-B
Sun 06:34:47 AM 38.8450 -92.3990 277° West 480 552 32,000  Level FlightAware ADS-B
Sun 06:35:37 AM 38.8560 -92.5190 277° West 480 552 32,000  Level FlightAware ADS-B
Sun 06:36:17 AM 38.8880 -92.8600 277° West 483 556 32,000  Level FlightAware ADS-B
Sun 06:37:02 AM 38.8990 -92.9970 276° West 482 555 32,000  Level FlightAware ADS-B
Sun 06:37:42 AM 38.9090 -93.1080 277° West 482 555 32,000  Level FlightAware ADS-B
Sun 06:38:22 AM 38.9190 -93.2240 276° West 483 556 32,000  Level FlightAware ADS-B
Sun 06:39:07 AM 38.9300 -93.3500 276° West 485 558 32,000  Level FlightAware ADS-B
Sun 06:39:42 AM 38.9380 -93.4500 276° West 485 558 32,000  Level FlightAware ADS-B
Sun 06:40:37 AM 38.9500 -93.6050 276° West 487 560 32,000  Level FlightAware ADS-B
Sun 06:41:17 AM 38.9600 -93.7210 276° West 487 560 32,000  Level FlightAware ADS-B
Sun 06:42:02 AM 38.9710 -93.8530 276° West 487 560 32,000 71 Level FlightAware ADS-B
Sun 06:42:42 AM 38.9800 -93.9680 276° West 486 559 32,100  Climbing FlightAware ADS-B
Sun 06:43:27 AM 38.9890 -94.0940 275° West 483 556 32,000 -71 Descending FlightAware ADS-B
Sun 06:44:07 AM 38.9980 -94.2080 276° West 480 552 32,000  Level FlightAware ADS-B
Sun 06:44:52 AM 39.0080 -94.3360 276° West 480 552 32,000  Level FlightAware ADS-B
Sun 06:45:32 AM 39.0160 -94.4550 275° West 481 554 32,000  Level FlightAware ADS-B
Sun 06:46:17 AM 39.0260 -94.5770 276° West 484 557 32,000  Level FlightAware ADS-B
Sun 06:46:57 AM 39.0340 -94.6920 275° West 488 562 32,000  Level FlightAware ADS-B
Sun 06:47:42 AM 39.0430 -94.8230 275° West 490 564 32,000  Level FlightAware ADS-B
Sun 06:48:22 AM 39.0520 -94.9420 276° West 492 566 32,000  Level FlightAware ADS-B
Sun 06:49:02 AM 39.0600 -95.0560 275° West 492 566 32,000  Level FlightAware ADS-B
Sun 06:49:47 AM 39.0690 -95.1900 275° West 493 567 32,000  Level FlightAware ADS-B
Sun 06:50:27 AM 39.0760 -95.3070 274° West 493 567 32,000  Level FlightAware ADS-B
Sun 06:51:12 AM 39.0600 -95.0640 95° East 493 567 32,000  Level FlightAware ADS-B
Sun 06:51:47 AM 39.0670 -95.1690 275° West 494 568 32,000  Level FlightAware ADS-B
Sun 06:52:32 AM 39.0740 -95.2750 275° West 494 568 32,000  Level FlightAware ADS-B
Sun 06:53:17 AM 39.0810 -95.3740 275° West 493 567 32,000  Level FlightAware ADS-B
Sun 06:53:57 AM 39.0850 -95.4380 275° West 493 567 32,000  Level FlightAware ADS-B
Sun 06:54:37 AM 39.0900 -95.5200 275° West 492 566 32,000  Level FlightAware ADS-B
Sun 06:55:22 AM 39.0960 -95.6100 275° West 491 565 32,000  Level FlightAware ADS-B
Sun 06:55:57 AM 39.1010 -95.6830 275° West 490 564 32,000  Level FlightAware ADS-B
Sun 06:56:42 AM 39.1050 -95.7430 275° West 490 564 32,000  Level FlightAware ADS-B
Sun 06:57:27 AM 39.1090 -95.8100 274° West 488 562 32,000  Level FlightAware ADS-B
Sun 06:58:07 AM 39.1160 -95.9200 275° West 488 562 32,000  Level FlightAware ADS-B
Sun 06:58:47 AM 39.1240 -96.0590 274° West 488 562 32,000 -71 Level FlightAware ADS-B
Sun 06:59:32 AM 39.1340 -96.2330 274° West 488 562 31,900  Descending FlightAware ADS-B
Sun 07:00:22 AM 39.1450 -96.4150 275° West 488 562 32,000 63 Climbing FlightAware ADS-B
Sun 07:01:07 AM 39.1510 -96.5330 274° West 488 562 32,000  Level FlightAware ADS-B
Sun 07:01:47 AM 39.1560 -96.6320 274° West 488 562 32,000  Level FlightAware ADS-B
Sun 07:02:37 AM 39.1630 -96.7560 274° West 488 562 32,000  Level FlightAware ADS-B
Sun 07:03:17 AM 39.1680 -96.8540 274° West 488 562 32,000  Level FlightAware ADS-B
Sun 07:03:57 AM 39.1740 -96.9530 275° West 488 562 32,000  Level FlightAware ADS-B
Sun 07:04:37 AM 39.1790 -97.0520 274° West 488 562 32,000  Level FlightAware ADS-B
Sun 07:05:17 AM 39.1840 -97.1510 274° West 488 562 32,000  Level FlightAware ADS-B
Sun 07:06:07 AM 39.1910 -97.2740 274° West 488 562 32,000  Level FlightAware ADS-B
Sun 07:06:47 AM 39.1960 -97.3730 274° West 488 562 32,000  Level FlightAware ADS-B
Sun 07:07:27 AM 39.2020 -97.4720 275° West 488 562 32,000  Level FlightAware ADS-B
Sun 07:08:07 AM 39.2070 -97.5710 274° West 488 562 32,000  Level FlightAware ADS-B
Sun 07:08:47 AM 39.2130 -97.6690 275° West 488 562 32,000  Level FlightAware ADS-B
Sun 07:09:37 AM 39.2190 -97.7930 274° West 488 562 32,000  Level FlightAware ADS-B
Sun 07:10:17 AM 39.2250 -97.8920 275° West 488 562 32,000  Level FlightAware ADS-B
Sun 07:10:41 AM 39.2589 -98.8494 275° West 493 567 32,000  Level Kansas City Center
Sun 07:10:57 AM 39.2589 -98.9014 270° West 494 568 32,000  Level Denver Center
Sun 07:11:57 AM 39.2656 -99.0697 273° West 493 567 32,000  Level Denver Center
Sun 07:12:57 AM 39.2703 -99.2383 272° West 491 565 32,000  Level Denver Center
Sun 07:13:57 AM 39.2767 -99.4350 272° West 492 566 32,000  Level Denver Center
Sun 07:14:57 AM 39.2814 -99.6036 272° West 492 566 32,000  Level Denver Center
Sun 07:15:57 AM 39.2867 -99.7700 272° West 486 559 32,000  Level Denver Center
Sun 07:16:57 AM 39.2911 -99.9414 272° West 493 567 32,000  Level Denver Center
Sun 07:17:57 AM 39.2964 -100.1386 272° West 493 567 32,000  Level Denver Center
Sun 07:18:57 AM 39.3006 -100.3064 272° West 489 563 32,000  Level Denver Center
Sun 07:19:57 AM 39.3039 -100.4756 272° West 493 567 32,000  Level Denver Center
Sun 07:26:03 AM 39.3231 -101.5660 272° West 489 563 32,000  Level FlightAware ADS-B
Sun 07:26:33 AM 39.3241 -101.6560 271° West 489 563 32,000  Level FlightAware ADS-B
Sun 07:27:03 AM 39.3251 -101.7430 271° West 488 562 32,000  Level FlightAware ADS-B
Sun 07:27:34 AM 39.3261 -101.8340 271° West 488 562 32,000  Level FlightAware ADS-B
Sun 07:28:21 AM 39.3273 -101.9700 271° West 487 560 32,000  Level FlightAware ADS-B
Sun 07:28:52 AM 39.3280 -102.0600 271° West 486 559 32,000  Level FlightAware ADS-B
Sun 07:29:37 AM 39.3290 -102.1880 271° West 485 558 32,000  Level FlightAware ADS-B
Sun 07:30:07 AM 39.3296 -102.2770 271° West 484 557 32,000  Level FlightAware ADS-B
Sun 07:30:38 AM 39.3301 -102.3640 270° West 484 557 32,000  Level FlightAware ADS-B
Sun 07:31:08 AM 39.3307 -102.4530 271° West 484 557 32,000  Level FlightAware ADS-B
Sun 07:31:39 AM 39.3311 -102.5420 270° West 483 556 32,000  Level FlightAware ADS-B
Sun 07:32:09 AM 39.3314 -102.6290 270° West 483 556 32,000  Level FlightAware ADS-B
Sun 07:32:40 AM 39.3316 -102.7180 270° West 484 557 32,000  Level FlightAware ADS-B
Sun 07:33:11 AM 39.3318 -102.8080 270° West 485 558 32,000  Level FlightAware ADS-B
Sun 07:33:42 AM 39.3320 -102.8980 270° West 485 558 32,000  Level FlightAware ADS-B
Sun 07:34:12 AM 39.3321 -102.9840 270° West 485 558 32,000  Level FlightAware ADS-B
Sun 07:34:43 AM 39.3320 -103.0740 270° West 485 558 32,000  Level FlightAware ADS-B
Sun 07:35:13 AM 39.3319 -103.1610 270° West 486 559 32,000  Level FlightAware ADS-B
Sun 07:35:43 AM 39.3317 -103.2480 270° West 486 559 32,000  Level FlightAware ADS-B
Sun 07:36:14 AM 39.3315 -103.3370 270° West 487 560 32,000  Level FlightAware ADS-B
Sun 07:36:44 AM 39.3313 -103.4250 270° West 487 560 32,000  Level FlightAware ADS-B
Sun 07:37:15 AM 39.3310 -103.5150 270° West 488 562 32,000  Level FlightAware ADS-B
Sun 07:37:46 AM 39.3306 -103.6020 270° West 488 562 32,000  Level FlightAware ADS-B
Sun 07:38:16 AM 39.3300 -103.6920 270° West 489 563 32,000  Level FlightAware ADS-B
Sun 07:38:47 AM 39.3295 -103.7830 270° West 490 564 32,000  Level FlightAware ADS-B
Sun 07:39:17 AM 39.3289 -103.8700 270° West 490 564 32,000  Level FlightAware ADS-B
Sun 07:39:48 AM 39.3282 -103.9610 269° West 490 564 32,000  Level FlightAware ADS-B
Sun 07:40:18 AM 39.3274 -104.0490 269° West 490 564 32,000  Level FlightAware ADS-B
Sun 07:40:49 AM 39.3266 -104.1360 269° West 490 564 32,000  Level FlightAware ADS-B
Sun 07:41:20 AM 39.3258 -104.2270 269° West 489 563 32,000  Level FlightAware ADS-B
Sun 07:41:50 AM 39.3248 -104.3170 269° West 489 563 32,000  Level FlightAware ADS-B
Sun 07:42:21 AM 39.3237 -104.4080 269° West 489 563 32,000  Level FlightAware ADS-B
Sun 07:42:51 AM 39.3225 -104.4950 269° West 489 563 32,000  Level FlightAware ADS-B
Sun 07:43:21 AM 39.3215 -104.5830 269° West 488 562 32,000  Level FlightAware ADS-B
Sun 07:43:51 AM 39.3203 -104.6700 269° West 488 562 32,000  Level FlightAware ADS-B
Sun 07:44:22 AM 39.3190 -104.7600 269° West 488 562 32,000  Level FlightAware ADS-B
Sun 07:44:53 AM 39.3176 -104.8470 269° West 488 562 32,000  Level FlightAware ADS-B
Sun 07:45:24 AM 39.3162 -104.9380 269° West 488 562 32,000  Level FlightAware ADS-B
Sun 07:45:54 AM 39.3146 -105.0280 269° West 488 562 32,000  Level FlightAware ADS-B
Sun 07:46:25 AM 39.3130 -105.1150 269° West 488 562 32,000  Level FlightAware ADS-B
Sun 07:46:55 AM 39.3114 -105.2050 269° West 488 562 32,000  Level FlightAware ADS-B
Sun 07:47:26 AM 39.3097 -105.2950 269° West 486 559 32,000  Level FlightAware ADS-B
Sun 07:47:58 AM 39.3078 -105.3850 268° West 486 559 32,000  Level FlightAware ADS-B
Sun 07:48:29 AM 39.3060 -105.4750 269° West 487 560 32,000  Level FlightAware ADS-B
Sun 07:48:59 AM 39.3040 -105.5650 268° West 488 562 32,000  Level FlightAware ADS-B
Sun 07:49:30 AM 39.3020 -105.6520 268° West 489 563 32,000  Level FlightAware ADS-B
Sun 07:50:00 AM 39.3001 -105.7420 268° West 487 560 32,000  Level FlightAware ADS-B
Sun 07:50:31 AM 39.2979 -105.8290 268° West 486 559 32,000  Level FlightAware ADS-B
Sun 07:51:01 AM 39.2957 -105.9190 268° West 486 559 32,000  Level FlightAware ADS-B
Sun 07:51:32 AM 39.2938 -106.0060 268° West 484 557 32,000  Level FlightAware ADS-B
Sun 07:52:02 AM 39.2913 -106.0950 268° West 484 557 32,000  Level FlightAware ADS-B
Sun 07:52:33 AM 39.2888 -106.1850 268° West 483 556 32,000  Level FlightAware ADS-B
Sun 07:53:03 AM 39.2863 -106.2710 268° West 484 557 32,000  Level FlightAware ADS-B
Sun 07:53:33 AM 39.2840 -106.3580 268° West 485 558 32,000  Level FlightAware ADS-B
Sun 07:54:03 AM 39.2814 -106.4440 268° West 485 558 32,000  Level FlightAware ADS-B
Sun 07:54:34 AM 39.2788 -106.5340 268° West 485 558 32,000  Level FlightAware ADS-B
Sun 07:55:04 AM 39.2762 -106.6210 268° West 485 558 32,000  Level FlightAware ADS-B
Sun 07:55:36 AM 39.2734 -106.7100 268° West 485 558 32,000  Level FlightAware ADS-B
Sun 07:56:06 AM 39.2704 -106.8000 268° West 486 559 32,000  Level FlightAware ADS-B
Sun 07:56:43 AM 39.2670 -106.9040 268° West 486 559 32,000  Level FlightAware ADS-B
Sun 07:57:13 AM 39.2640 -106.9910 267° West 487 560 32,000  Level FlightAware ADS-B
Sun 07:57:43 AM 39.2609 -107.0810 267° West 487 560 32,000  Level FlightAware ADS-B
Sun 07:58:14 AM 39.2578 -107.1710 267° West 487 560 32,000  Level FlightAware ADS-B
Sun 07:58:44 AM 39.2547 -107.2580 267° West 488 562 32,000  Level FlightAware ADS-B
Sun 07:59:17 AM 39.2520 -107.3390 268° West 487 560 32,000  Level FlightAware ADS-B
Sun 08:00:02 AM 39.2470 -107.4720 267° West 487 560 32,000  Level FlightAware ADS-B
Sun 08:00:37 AM 39.2430 -107.5740 267° West 486 559 32,000  Level FlightAware ADS-B
Sun 08:01:22 AM 39.2380 -107.7040 267° West 485 558 32,000  Level FlightAware ADS-B
Sun 08:02:02 AM 39.2330 -107.8190 267° West 485 558 32,000  Level FlightAware ADS-B
Sun 08:02:47 AM 39.2270 -107.9490 267° West 485 558 32,000  Level FlightAware ADS-B
Sun 08:03:32 AM 39.2220 -108.0790 267° West 485 558 32,000  Level FlightAware ADS-B
Sun 08:04:12 AM 39.2170 -108.1950 267° West 484 557 32,000  Level FlightAware ADS-B
Sun 08:04:52 AM 39.2120 -108.3100 267° West 482 555 32,000  Level FlightAware ADS-B
Sun 08:05:37 AM 39.2050 -108.4390 266° West 482 555 32,000  Level FlightAware ADS-B
Sun 08:06:17 AM 39.2000 -108.5540 267° West 482 555 32,000  Level FlightAware ADS-B
Sun 08:07:02 AM 39.1940 -108.6770 266° West 482 555 32,000  Level FlightAware ADS-B
Sun 08:07:42 AM 39.1880 -108.7920 266° West 483 556 32,000  Level FlightAware ADS-B
Sun 08:08:27 AM 39.1820 -108.9190 267° West 483 556 32,000  Level FlightAware ADS-B
Sun 08:09:07 AM 39.1760 -109.0170 266° West 483 556 32,000  Level FlightAware ADS-B
Sun 08:09:47 AM 39.1710 -109.1150 266° West 483 556 32,000  Level FlightAware ADS-B
Sun 08:10:32 AM 39.1660 -109.2310 267° West 484 557 32,000  Level FlightAware ADS-B
Sun 08:11:07 AM 39.1580 -109.3680 266° West 483 556 32,000  Level FlightAware ADS-B
Sun 08:11:52 AM 39.1520 -109.4830 266° West 482 555 32,000  Level FlightAware ADS-B
Sun 08:12:32 AM 39.1440 -109.6200 266° West 483 556 32,000  Level FlightAware ADS-B
Sun 08:13:17 AM 39.1380 -109.7380 266° West 483 556 32,000  Level FlightAware ADS-B
Sun 08:13:57 AM 39.1320 -109.8350 265° West 483 556 32,000  Level FlightAware ADS-B
Sun 08:14:37 AM 39.1270 -109.9330 266° West 483 556 32,000  Level FlightAware ADS-B
Sun 08:15:17 AM 39.1220 -110.0310 266° West 483 556 32,000  Level FlightAware ADS-B
Sun 08:16:07 AM 39.1150 -110.1530 266° West 483 556 32,000  Level FlightAware ADS-B
Sun 08:16:47 AM 39.1100 -110.2510 266° West 483 556 32,000  Level FlightAware ADS-B
Sun 08:17:27 AM 39.1050 -110.3480 266° West 483 556 32,000  Level FlightAware ADS-B
Sun 08:18:07 AM 39.0990 -110.4460 266° West 483 556 32,000  Level FlightAware ADS-B
Sun 08:18:47 AM 39.0940 -110.5440 266° West 483 556 32,000  Level FlightAware ADS-B
Sun 08:19:37 AM 39.0870 -110.6660 266° West 483 556 32,000  Level FlightAware ADS-B
Sun 08:20:17 AM 39.0820 -110.7630 266° West 483 556 32,000  Level FlightAware ADS-B
Sun 08:20:57 AM 39.0770 -110.8610 266° West 483 556 32,000  Level FlightAware ADS-B
Sun 08:21:37 AM 39.0710 -110.9590 266° West 483 556 32,000  Level FlightAware ADS-B
Sun 08:22:17 AM 39.0660 -111.0560 266° West 483 556 32,000  Level FlightAware ADS-B
Sun 08:22:40 AM 39.0344 -111.3489 266° West 489 563 32,000  Level Salt Lake Center
Sun 08:23:40 AM 39.0192 -111.5558 265° West 486 559 32,000  Level Salt Lake Center
Sun 08:24:40 AM 39.0064 -111.7261 265° West 483 556 32,000  Level Salt Lake Center
Sun 08:25:41 AM 38.9928 -111.8983 264° West 485 558 32,000  Level Salt Lake Center
Sun 08:26:41 AM 38.9800 -112.0686 265° West 481 554 32,000  Level Salt Lake Center
Sun 08:27:41 AM 38.9664 -112.2383 264° West 481 554 32,000  Level Salt Lake Center
Sun 08:28:42 AM 38.9519 -112.4097 264° West 483 556 32,000  Level Salt Lake Center
Sun 08:29:42 AM 38.9389 -112.5811 264° West 485 558 32,000  Level Salt Lake Center
Sun 08:30:42 AM 38.9242 -112.7511 264° West 483 556 32,000  Level Salt Lake Center
Sun 08:31:42 AM 38.9097 -112.9231 264° West 486 559 32,000  Level Salt Lake Center
Sun 08:32:43 AM 38.8944 -113.0917 263° West 481 554 32,000  Level Salt Lake Center
Sun 08:33:43 AM 38.8794 -113.2639 264° West 485 558 32,000  Level Salt Lake Center
Sun 08:34:44 AM 38.8642 -113.4350 264° West 485 558 32,000  Level Salt Lake Center
Sun 08:35:44 AM 38.8492 -113.6067 264° West 486 559 32,000  Level Salt Lake Center
Sun 08:36:44 AM 38.8331 -113.7775 263° West 486 559 32,000  Level Salt Lake Center
Sun 08:37:45 AM 38.8169 -113.9494 263° West 488 562 32,000  Level Salt Lake Center
Sun 08:38:46 AM 38.8008 -114.1197 263° West 486 559 32,000  Level Salt Lake Center
Sun 08:39:46 AM 38.7847 -114.2914 263° West 487 560 32,000  Level Salt Lake Center
Sun 08:40:46 AM 38.7675 -114.4622 263° West 487 560 32,000  Level Salt Lake Center
Sun 08:41:46 AM 38.7497 -114.6331 262° West 486 559 32,000  Level Salt Lake Center
Sun 08:42:47 AM 38.7331 -114.8033 263° West 484 557 32,000  Level Salt Lake Center
Sun 08:43:47 AM 38.7131 -114.9764 262° West 491 565 32,000  Level Salt Lake Center
Sun 08:44:48 AM 38.6950 -115.1458 262° West 487 560 32,000  Level Salt Lake Center
Sun 08:45:48 AM 38.6772 -115.3150 262° West 485 558 32,000  Level Salt Lake Center
Sun 08:46:48 AM 38.6567 -115.5086 262° West 480 552 32,000  Level Salt Lake Center
Sun 08:47:49 AM 38.6381 -115.6794 262° West 483 556 32,000  Level Salt Lake Center
Sun 08:48:49 AM 38.6197 -115.8494 262° West 484 557 32,000  Level Salt Lake Center
Sun 08:49:50 AM 38.5997 -116.0186 261° West 482 555 32,000  Level Salt Lake Center
Sun 08:50:50 AM 38.5806 -116.1886 262° West 484 557 32,000  Level Salt Lake Center
Sun 08:51:22 AM 38.5694 -116.2908 262° West 484 557 32,000  Level Oakland Center
Sun 08:52:22 AM 38.5506 -116.4594 262° West 482 555 32,000  Level Oakland Center
Sun 08:52:51 AM 38.5419 -116.5267 261° West 483 556 32,000  Level Salt Lake Center
Sun 08:53:23 AM 38.5294 -116.6297 261° West 486 559 32,000  Level Oakland Center
Sun 08:54:23 AM 38.5100 -116.7978 262° West 483 556 32,000  Level Oakland Center
Sun 08:55:23 AM 38.4894 -116.9669 261° West 485 558 32,000  Level Oakland Center
Sun 08:56:23 AM 38.4694 -117.1353 261° West 485 558 32,000  Level Oakland Center
Sun 08:56:53 AM 38.4608 -117.2017 261° West 485 558 32,000  Level Salt Lake Center
Sun 08:57:53 AM 38.4397 -117.3700 261° West 486 559 32,000  Level Salt Lake Center
Sun 08:58:23 AM 38.4272 -117.4714 261° West 486 559 32,000  Level Oakland Center
Sun 08:59:24 AM 38.4061 -117.6392 261° West 486 559 32,000  Level Oakland Center
Sun 09:00:24 AM 38.3844 -117.8072 261° West 484 557 32,000  Level Oakland Center
Sun 09:01:24 AM 38.3625 -117.9750 261° West 482 555 32,000  Level Oakland Center
Sun 09:02:24 AM 38.3414 -118.1342 260° West 483 556 32,000  Level Oakland Center
Sun 09:03:24 AM 38.3192 -118.3031 261° West 483 556 32,000  Level Oakland Center
Sun 09:08:57 AM 38.1880 -119.2580 261° West 484 557 32,000  Level FlightAware ADS-B
Sun 09:09:37 AM 38.1730 -119.3640 260° West 485 558 32,000  Level FlightAware ADS-B
Sun 09:10:32 AM 38.1500 -119.5120 259° West 486 559 32,000  Level FlightAware ADS-B
Sun 09:11:12 AM 38.1260 -119.6320 256° West 486 559 32,000  Level FlightAware ADS-B
Sun 09:11:57 AM 38.1020 -119.7560 256° West 486 559 32,000  Level FlightAware ADS-B
Sun 09:12:37 AM 38.0800 -119.8670 256° West 487 560 32,000  Level FlightAware ADS-B
Sun 09:13:17 AM 38.0590 -119.9780 257° West 487 560 32,000  Level FlightAware ADS-B
Sun 09:14:07 AM 38.0320 -120.1140 256° West 489 563 32,000  Level FlightAware ADS-B
Sun 09:14:47 AM 38.0090 -120.2290 256° West 490 564 32,000  Level FlightAware ADS-B
Sun 09:15:32 AM 37.9850 -120.3510 256° West 490 564 32,000  Level FlightAware ADS-B
Sun 09:16:12 AM 37.9630 -120.4630 256° West 490 564 32,000  Level FlightAware ADS-B
Sun 09:16:52 AM 37.9400 -120.5740 255° West 491 565 32,000  Level FlightAware ADS-B
Sun 09:17:37 AM 37.9150 -120.7000 256° West 492 566 32,000  Level FlightAware ADS-B
Sun 09:18:17 AM 37.8920 -120.8110 255° West 492 566 32,000  Level FlightAware ADS-B
Sun 09:18:57 AM 37.8690 -120.9230 255° West 493 567 32,000  Level FlightAware ADS-B
Sun 09:19:37 AM 37.8470 -121.0320 256° West 493 567 32,000  Level FlightAware ADS-B
Sun 09:20:22 AM 37.8210 -121.1610 256° West 495 570 32,000  Level FlightAware ADS-B
Sun 09:21:07 AM 37.7930 -121.2920 255° West 496 571 32,000  Level FlightAware ADS-B
Sun 09:21:47 AM 37.7700 -121.4050 256° West 497 572 32,000  Level FlightAware ADS-B
Sun 09:22:27 AM 37.7470 -121.5140 255° West 497 572 32,000  Level FlightAware ADS-B
Sun 09:23:12 AM 37.7210 -121.6370 255° West 497 572 32,000  Level FlightAware ADS-B
Sun 09:23:52 AM 37.6960 -121.7520 255° West 498 573 32,000  Level FlightAware ADS-B
Sun 09:24:32 AM 37.6720 -121.8650 255° West 498 573 32,000  Level FlightAware ADS-B
Sun 09:25:17 AM 37.6450 -121.9910 255° West 499 574 32,000  Level FlightAware ADS-B
Sun 09:25:57 AM 37.6220 -122.1010 255° West 499 574 32,000  Level FlightAware ADS-B
Sun 09:26:42 AM 37.5950 -122.2240 255° West 499 574 32,000  Level FlightAware ADS-B
Sun 09:27:22 AM 37.5710 -122.3360 255° West 499 574 32,000  Level FlightAware ADS-B
Sun 09:28:07 AM 37.5420 -122.4650 254° West 499 574 32,000  Level FlightAware ADS-B
Sun 09:28:47 AM 37.5180 -122.5770 255° West 500 575 32,000  Level FlightAware ADS-B
Sun 09:29:27 AM 37.4930 -122.6900 254° West 501 577 32,000  Level FlightAware ADS-B
Sun 09:30:12 AM 37.4640 -122.8180 254° West 501 577 32,000  Level FlightAware ADS-B
Sun 09:30:52 AM 37.4390 -122.9310 254° West 500 575 32,000  Level FlightAware ADS-B
Sun 09:31:37 AM 37.4110 -123.0570 254° West 501 577 32,000  Level FlightAware ADS-B
Sun 09:32:17 AM 37.3850 -123.1690 254° West 501 577 32,000  Level FlightAware ADS-B
Sun 09:32:57 AM 37.3610 -123.2780 255° West 502 578 32,000  Level FlightAware ADS-B
Sun 09:33:42 AM 37.3310 -123.4070 254° West 502 578 32,000  Level FlightAware ADS-B
Sun 09:34:17 AM 37.3100 -123.4990 254° West 502 578 32,000  Level FlightAware ADS-B
Sun 09:35:02 AM 37.2800 -123.6230 253° West 503 579 32,000  Level FlightAware ADS-B
Sun 09:35:42 AM 37.2570 -123.7180 253° West 503 579 32,000  Level FlightAware ADS-B
Sun 09:36:27 AM 37.2250 -123.8670 255° West 504 580 32,000  Level FlightAware ADS-B
Sun 09:37:07 AM 37.2000 -123.9690 253° West 504 580 32,000  Level FlightAware ADS-B
Sun 09:37:47 AM 37.1770 -124.0640 253° West 504 580 32,000  Level FlightAware ADS-B
Sun 09:38:37 AM 37.1480 -124.1830 253° West 504 580 32,000  Level FlightAware ADS-B
Sun 09:39:17 AM 37.1250 -124.2780 253° West 504 580 32,000  Level FlightAware ADS-B
Sun 09:39:57 AM 37.1010 -124.3740 253° West 504 580 32,000  Level FlightAware ADS-B
Sun 09:40:37 AM 37.0780 -124.4690 253° West 504 580 32,000  Level FlightAware ADS-B
Sun 09:41:17 AM 37.0550 -124.5640 253° West 504 580 32,000  Level FlightAware ADS-B
Sun 09:41:57 AM 37.0320 -124.6590 253° West 504 580 32,000  Level FlightAware ADS-B
Sun 09:42:47 AM 37.0030 -124.7770 253° West 504 580 32,000  Level FlightAware ADS-B
Sun 09:43:27 AM 36.9800 -124.8720 253° West 504 580 32,000  Level FlightAware ADS-B
Sun 09:44:07 AM 36.9570 -124.9670 253° West 504 580 32,000  Level FlightAware ADS-B
Sun 09:44:47 AM 36.9330 -125.0620 252° West 504 580 32,000  Level FlightAware ADS-B
Sun 09:45:27 AM 36.9100 -125.1570 253° West 504 580 32,000  Level FlightAware ADS-B
Sun 09:46:17 AM 36.8810 -125.2750 253° West 504 580 32,000 -81 Level FlightAware ADS-B
Sun 09:46:41 AM 36.8175 -125.5614 253° West 506 582 31,900 -71 Descending Oakland Center
Sun 09:47:42 AM 36.7758 -125.7289 253° West 506 582 31,900  Level Oakland Center
Sun 09:48:42 AM 36.7325 -125.8950 252° West 504 580 31,900  Level Oakland Center
Sun 09:49:43 AM 36.6919 -126.0631 253° West 507 583 31,900 50 Level Oakland Center
Sun 09:50:43 AM 36.6406 -126.2625 252° West 507 583 32,000 50 Climbing Oakland Center
Sun 09:51:44 AM 36.5964 -126.4289 252° West 507 583 32,000  Level Oakland Center
Sun 09:52:44 AM 36.5628 -126.5625 253° West 507 583 32,000 -50 Level Oakland Center
Sun 09:53:45 AM 36.5106 -126.7628 252° West 507 583 31,900  Descending Oakland Center
Sun 09:54:46 AM 36.4669 -126.9289 252° West 507 583 32,000 82 Climbing Oakland Center
Sun 09:54:58 AM 36.4667 -126.9333 250° West 507 583 32,000  Level Oakland Oceanic (ODAPS)
Sun 10:02:00 AM 36.1236 -128.0908 249° West 507 583 32,000  Level FlightAware Transoceanic
Sun 10:03:00 AM 36.0736 -128.2553 249° West 507 583 32,000  Level FlightAware Transoceanic
Sun 10:04:00 AM 36.0235 -128.4196 249° West 507 583 32,000  Level FlightAware Transoceanic
Sun 10:05:00 AM 35.9731 -128.5837 249° West 507 583 32,000  Level FlightAware Transoceanic
Sun 10:06:00 AM 35.9225 -128.7476 249° West 507 583 32,000  Level FlightAware Transoceanic
Sun 10:06:27 AM 35.9000 -128.8167 249° West 509 586 32,000  Level Oakland Oceanic (ODAPS)
Sun 10:07:00 AM 35.8717 -128.9113 249° West 507 583 32,000  Level FlightAware Transoceanic
Sun 10:08:00 AM 35.8207 -129.0747 249° West 507 583 32,000  Level FlightAware Transoceanic
Sun 10:09:00 AM 35.7694 -129.2380 249° West 507 583 32,000  Level FlightAware Transoceanic
Sun 10:10:00 AM 35.7179 -129.4010 249° West 507 583 32,000  Level FlightAware Transoceanic
Sun 10:11:00 AM 35.6662 -129.5638 249° West 507 583 32,000  Level FlightAware Transoceanic
Sun 10:12:00 AM 35.5952 -129.7833 248° West 509 586 32,000  Level FlightAware Transoceanic
Sun 10:13:00 AM 35.5437 -129.9436 248° West 509 586 32,000  Level FlightAware Transoceanic
Sun 10:14:00 AM 35.4919 -130.1038 248° West 509 586 32,000  Level FlightAware Transoceanic
Sun 10:15:00 AM 35.4399 -130.2638 248° West 509 586 32,000  Level FlightAware Transoceanic
Sun 10:16:00 AM 35.3877 -130.4236 248° West 509 586 32,000  Level FlightAware Transoceanic
Sun 10:17:00 AM 35.3353 -130.5831 248° West 509 586 32,000  Level FlightAware Transoceanic
Sun 10:18:00 AM 35.2827 -130.7425 248° West 509 586 32,000  Level FlightAware Transoceanic
Sun 10:19:00 AM 35.2299 -130.9016 248° West 509 586 32,000  Level FlightAware Transoceanic
Sun 10:20:00 AM 35.1769 -131.0605 248° West 509 586 32,000  Level FlightAware Transoceanic
Sun 10:20:19 AM 35.1667 -131.0833 248° West 513 590 32,000  Level Oakland Oceanic (ODAPS)
Sun 10:21:00 AM 35.1237 -131.2193 248° West 509 586 32,000  Level FlightAware Transoceanic
Sun 10:22:00 AM 35.0703 -131.3778 248° West 509 586 32,000  Level FlightAware Transoceanic
Sun 10:23:00 AM 35.0166 -131.5361 247° West 509 586 32,000  Level FlightAware Transoceanic
Sun 10:24:00 AM 34.9628 -131.6942 247° West 509 586 32,000  Level FlightAware Transoceanic
Sun 10:25:00 AM 34.9087 -131.8521 247° West 509 586 32,000  Level FlightAware Transoceanic
Sun 10:26:00 AM 34.8470 -132.0259 247° West 513 590 32,000  Level FlightAware Transoceanic
Sun 10:27:00 AM 34.7930 -132.1823 247° West 513 590 32,000  Level FlightAware Transoceanic
Sun 10:28:00 AM 34.7389 -132.3384 247° West 513 590 32,000  Level FlightAware Transoceanic
Sun 10:29:00 AM 34.6845 -132.4944 247° West 513 590 32,000  Level FlightAware Transoceanic
Sun 10:30:00 AM 34.6299 -132.6502 247° West 513 590 32,000  Level FlightAware Transoceanic
Sun 10:31:00 AM 34.5751 -132.8057 247° West 513 590 32,000  Level FlightAware Transoceanic
Sun 10:32:00 AM 34.5202 -132.9611 247° West 513 590 32,000  Level FlightAware Transoceanic
Sun 10:33:00 AM 34.4650 -133.1162 247° West 513 590 32,000  Level FlightAware Transoceanic
Sun 10:34:00 AM 34.4096 -133.2712 247° West 513 590 32,000  Level FlightAware Transoceanic
Sun 10:34:11 AM 34.4000 -133.3333 246° West 514 592 32,000  Level Oakland Oceanic (ODAPS)
Sun 10:35:00 AM 34.3541 -133.4259 246° West 513 590 32,000  Level FlightAware Transoceanic
Sun 10:36:00 AM 34.2983 -133.5804 246° West 513 590 32,000  Level FlightAware Transoceanic
Sun 10:37:00 AM 34.2424 -133.7348 246° West 513 590 32,000  Level FlightAware Transoceanic
Sun 10:38:00 AM 34.1862 -133.8889 246° West 513 590 32,000  Level FlightAware Transoceanic
Sun 10:39:00 AM 34.1299 -134.0428 246° West 513 590 32,000  Level FlightAware Transoceanic
Sun 10:40:00 AM 34.0167 -134.3500 246° West 514 592 32,000  Level FlightAware Transoceanic
Sun 10:40:29 AM 34.0167 -134.3500 246° West 519 597 32,000  Level Oakland Oceanic (ODAPS)
Sun 10:41:00 AM 33.9605 -134.5021 246° West 514 592 32,000  Level FlightAware Transoceanic
Sun 10:42:00 AM 33.9041 -134.6540 246° West 514 592 32,000  Level FlightAware Transoceanic
Sun 10:43:00 AM 33.8475 -134.8057 246° West 514 592 32,000  Level FlightAware Transoceanic
Sun 10:44:00 AM 33.7907 -134.9572 246° West 514 592 32,000  Level FlightAware Transoceanic
Sun 10:45:00 AM 33.7338 -135.1086 246° West 514 592 32,000  Level FlightAware Transoceanic
Sun 10:46:00 AM 33.6614 -135.2999 245° Southwest 519 597 32,000  Level FlightAware Transoceanic
Sun 10:47:00 AM 33.6015 -135.4575 245° Southwest 519 597 32,000  Level FlightAware Transoceanic
Sun 10:48:00 AM 33.5413 -135.6148 245° Southwest 519 597 32,000  Level FlightAware Transoceanic
Sun 10:49:00 AM 33.4810 -135.7719 245° Southwest 519 597 32,000  Level FlightAware Transoceanic
Sun 10:49:06 AM 33.5667 -135.5667 245° Southwest 521 600 32,000  Level Oakland Oceanic (ODAPS)
Sun 10:50:00 AM 33.4205 -135.9288 245° Southwest 519 597 32,000  Level FlightAware Transoceanic
Sun 10:51:00 AM 33.3598 -136.0855 245° Southwest 519 597 32,000  Level FlightAware Transoceanic
Sun 10:52:00 AM 33.2989 -136.2419 245° Southwest 519 597 32,000  Level FlightAware Transoceanic
Sun 10:53:00 AM 33.2378 -136.3982 245° Southwest 519 597 32,000  Level FlightAware Transoceanic
Sun 10:54:00 AM 33.1765 -136.5542 245° Southwest 519 597 32,000  Level FlightAware Transoceanic
Sun 10:55:00 AM 33.1359 -136.6714 245° Southwest 521 600 32,000  Level FlightAware Transoceanic
Sun 10:56:00 AM 33.0735 -136.8284 245° Southwest 521 600 32,000  Level FlightAware Transoceanic
Sun 10:57:00 AM 33.0110 -136.9851 245° Southwest 521 600 32,000  Level FlightAware Transoceanic
Sun 10:58:00 AM 32.9482 -137.1416 244° Southwest 521 600 32,000  Level FlightAware Transoceanic
Sun 10:59:00 AM 32.8853 -137.2978 244° Southwest 521 600 32,000  Level FlightAware Transoceanic
Sun 11:00:00 AM 32.8222 -137.4539 244° Southwest 521 600 32,000  Level FlightAware Transoceanic
Sun 11:01:00 AM 32.7589 -137.6097 244° Southwest 521 600 32,000  Level FlightAware Transoceanic
Sun 11:01:54 AM 32.6833 -137.7833 244° Southwest 520 598 32,000  Level Oakland Oceanic (ODAPS)
Sun 11:02:00 AM 32.6954 -137.7653 244° Southwest 521 600 32,000  Level FlightAware Transoceanic
Sun 11:03:00 AM 32.6317 -137.9207 244° Southwest 521 600 32,000  Level FlightAware Transoceanic
Sun 11:04:00 AM 32.5678 -138.0758 244° Southwest 521 600 32,000  Level FlightAware Transoceanic
Sun 11:05:00 AM 32.5037 -138.2307 244° Southwest 521 600 32,000  Level FlightAware Transoceanic
Sun 11:06:00 AM 32.4395 -138.3855 244° Southwest 521 600 32,000  Level FlightAware Transoceanic
Sun 11:07:00 AM 32.3750 -138.5399 244° Southwest 521 600 32,000  Level FlightAware Transoceanic
Sun 11:08:00 AM 32.3013 -138.7074 244° Southwest 520 598 32,000  Level FlightAware Transoceanic
Sun 11:09:00 AM 32.2370 -138.8607 244° Southwest 520 598 32,000  Level FlightAware Transoceanic
Sun 11:10:00 AM 32.1725 -139.0137 243° Southwest 520 598 32,000  Level FlightAware Transoceanic
Sun 11:11:00 AM 32.1078 -139.1665 243° Southwest 520 598 32,000  Level FlightAware Transoceanic
Sun 11:12:00 AM 32.0430 -139.3191 243° Southwest 520 598 32,000  Level FlightAware Transoceanic
Sun 11:13:00 AM 31.9779 -139.4715 243° Southwest 520 598 32,000  Level FlightAware Transoceanic
Sun 11:14:00 AM 31.9127 -139.6237 243° Southwest 520 598 32,000  Level FlightAware Transoceanic
Sun 11:15:00 AM 31.8473 -139.7756 243° Southwest 520 598 32,000  Level FlightAware Transoceanic
Sun 11:15:47 AM 31.7833 -139.9167 243° Southwest 517 595 32,000  Level Oakland Oceanic (ODAPS)
Sun 11:16:00 AM 31.7817 -139.9274 243° Southwest 520 598 32,000  Level FlightAware Transoceanic
Sun 11:17:00 AM 31.7159 -140.0789 243° Southwest 520 598 32,000  Level FlightAware Transoceanic
Sun 11:18:00 AM 31.6500 -140.2302 243° Southwest 520 598 32,000  Level FlightAware Transoceanic
Sun 11:19:00 AM 31.5838 -140.3813 243° Southwest 520 598 32,000  Level FlightAware Transoceanic
Sun 11:20:00 AM 31.5175 -140.5322 243° Southwest 520 598 32,000  Level FlightAware Transoceanic
Sun 11:21:00 AM 31.4510 -140.6828 243° Southwest 520 598 32,000  Level FlightAware Transoceanic
Sun 11:22:00 AM 31.3849 -140.8297 243° Southwest 517 595 32,000  Level FlightAware Transoceanic
Sun 11:23:00 AM 31.3179 -140.9811 243° Southwest 517 595 32,000  Level FlightAware Transoceanic
Sun 11:24:00 AM 31.2507 -141.1324 242° Southwest 517 595 32,000  Level FlightAware Transoceanic
Sun 11:24:54 AM 31.1833 -141.2833 242° Southwest 509 586 32,000  Level Oakland Oceanic (ODAPS)
Sun 11:25:00 AM 31.1833 -141.2833 242° Southwest 517 595 32,000  Level FlightAware Transoceanic
Sun 11:26:00 AM 31.1198 -141.4241 242° Southwest 517 595 32,000  Level FlightAware Transoceanic
Sun 11:27:00 AM 31.0561 -141.5647 242° Southwest 517 595 32,000  Level FlightAware Transoceanic
Sun 11:28:00 AM 30.9922 -141.7052 242° Southwest 517 595 32,000  Level FlightAware Transoceanic
Sun 11:29:00 AM 30.9282 -141.8454 242° Southwest 517 595 32,000  Level FlightAware Transoceanic
Sun 11:29:39 AM 30.8500 -142.0000 242° Southwest 509 586 32,000  Level Oakland Oceanic (ODAPS)
Sun 11:30:00 AM 30.8640 -141.9855 242° Southwest 517 595 32,000  Level FlightAware Transoceanic
Sun 11:31:00 AM 30.7833 -142.1610 242° Southwest 509 586 32,000  Level FlightAware Transoceanic
Sun 11:32:00 AM 30.7160 -142.3066 242° Southwest 509 586 32,000  Level FlightAware Transoceanic
Sun 11:33:00 AM 30.6486 -142.4519 242° Southwest 509 586 32,000  Level FlightAware Transoceanic
Sun 11:34:00 AM 30.5811 -142.5971 242° Southwest 509 586 32,000  Level FlightAware Transoceanic
Sun 11:35:00 AM 30.5133 -142.7421 241° Southwest 509 586 32,000  Level FlightAware Transoceanic
Sun 11:36:00 AM 30.3882 -142.9951 241° Southwest 509 586 32,000  Level FlightAware Transoceanic
Sun 11:37:00 AM 30.3217 -143.1365 241° Southwest 509 586 32,000  Level FlightAware Transoceanic
Sun 11:38:00 AM 30.2549 -143.2777 241° Southwest 509 586 32,000  Level FlightAware Transoceanic
Sun 11:39:00 AM 30.1880 -143.4187 241° Southwest 509 586 32,000  Level FlightAware Transoceanic
Sun 11:40:00 AM 30.1210 -143.5596 241° Southwest 509 586 32,000  Level FlightAware Transoceanic
Sun 11:41:00 AM 30.0538 -143.7002 241° Southwest 509 586 32,000  Level FlightAware Transoceanic
Sun 11:42:00 AM 29.9865 -143.8406 241° Southwest 509 586 32,000  Level FlightAware Transoceanic
Sun 11:43:00 AM 29.9190 -143.9808 241° Southwest 509 586 32,000 1,319 Level FlightAware Transoceanic
Sun 11:43:31 AM 29.9000 -144.0333 241° Southwest 512 589 34,000  Climbing Oakland Oceanic (ODAPS)
Sun 11:44:00 AM 29.8514 -144.1209 241° Southwest 509 586 32,000 -1,348 Descending FlightAware Transoceanic
Sun 11:45:00 AM 29.7836 -144.2608 241° Southwest 509 586 32,000  Level FlightAware Transoceanic
Sun 11:46:00 AM 29.7157 -144.4004 241° Southwest 509 586 32,000  Level FlightAware Transoceanic
Sun 11:47:00 AM 29.6476 -144.5399 241° Southwest 509 586 32,000  Level FlightAware Transoceanic
Sun 11:48:00 AM 29.5794 -144.6792 241° Southwest 509 586 32,000 1,000 Level FlightAware Transoceanic
Sun 11:49:00 AM 29.4812 -144.8890 240° Southwest 512 589 34,000 1,000 Climbing FlightAware Transoceanic
Sun 11:50:00 AM 29.4108 -145.0310 240° Southwest 512 589 34,000  Level FlightAware Transoceanic
Sun 11:51:00 AM 29.3403 -145.1727 240° Southwest 512 589 34,000  Level FlightAware Transoceanic
Sun 11:52:00 AM 29.2697 -145.3142 240° Southwest 512 589 34,000  Level FlightAware Transoceanic
Sun 11:53:00 AM 29.1989 -145.4556 240° Southwest 512 589 34,000  Level FlightAware Transoceanic
Sun 11:54:00 AM 29.1280 -145.5967 240° Southwest 512 589 34,000  Level FlightAware Transoceanic
Sun 11:55:00 AM 29.0569 -145.7377 240° Southwest 512 589 34,000  Level FlightAware Transoceanic
Sun 11:56:00 AM 28.9857 -145.8784 240° Southwest 512 589 34,000  Level FlightAware Transoceanic
Sun 11:57:00 AM 28.9143 -146.0190 240° Southwest 512 589 34,000  Level FlightAware Transoceanic
Sun 11:57:23 AM 28.9167 -146.0000 240° Southwest 508 585 34,000  Level Oakland Oceanic (ODAPS)
Sun 11:58:00 AM 28.8428 -146.1593 240° Southwest 512 589 34,000  Level FlightAware Transoceanic
Sun 11:59:00 AM 28.7711 -146.2995 240° Southwest 512 589 34,000  Level FlightAware Transoceanic
Sun 12:00:00 PM 28.6993 -146.4395 240° Southwest 512 589 34,000  Level FlightAware Transoceanic
Sun 12:01:00 PM 28.6273 -146.5793 240° Southwest 512 589 34,000  Level FlightAware Transoceanic
Sun 12:02:00 PM 28.5552 -146.7189 240° Southwest 512 589 34,000  Level FlightAware Transoceanic
Sun 12:03:00 PM 28.4844 -146.8475 240° Southwest 508 585 34,000  Level FlightAware Transoceanic
Sun 12:04:00 PM 28.4119 -146.9881 240° Southwest 508 585 34,000  Level FlightAware Transoceanic
Sun 12:05:00 PM 28.3392 -147.1284 239° Southwest 508 585 34,000  Level FlightAware Transoceanic
Sun 12:06:00 PM 28.2663 -147.2686 239° Southwest 508 585 34,000  Level FlightAware Transoceanic
Sun 12:07:00 PM 28.1933 -147.4086 239° Southwest 508 585 34,000  Level FlightAware Transoceanic
Sun 12:08:00 PM 28.1202 -147.5484 239° Southwest 508 585 34,000  Level FlightAware Transoceanic
Sun 12:09:00 PM 28.0470 -147.6880 239° Southwest 508 585 34,000  Level FlightAware Transoceanic
Sun 12:10:00 PM 27.9736 -147.8274 239° Southwest 508 585 34,000  Level FlightAware Transoceanic
Sun 12:11:00 PM 27.9000 -147.9667 239° Southwest 508 585 34,000  Level FlightAware Transoceanic
Sun 12:11:15 PM 27.9333 -147.9000 241° Southwest 514 592 34,000  Level Oakland Oceanic (ODAPS)
Sun 12:11:43 PM 27.9000 -147.9667 239° Southwest 492 566 34,000  Level Oakland Oceanic (ODAPS)
Sun 12:12:00 PM 27.8321 -148.0937 239° Southwest 508 585 34,000  Level FlightAware Transoceanic
Sun 12:13:00 PM 27.7641 -148.2205 239° Southwest 508 585 34,000  Level FlightAware Transoceanic
Sun 12:14:00 PM 27.6960 -148.3472 239° Southwest 508 585 34,000  Level FlightAware Transoceanic
Sun 12:15:00 PM 27.6278 -148.4738 239° Southwest 508 585 34,000  Level FlightAware Transoceanic
Sun 12:16:00 PM 27.5595 -148.6001 239° Southwest 508 585 34,000  Level FlightAware Transoceanic
Sun 12:17:00 PM 27.4910 -148.7263 239° Southwest 514 592 34,000  Level FlightAware Transoceanic
Sun 12:18:00 PM 27.4653 -148.7736 239° Southwest 492 566 34,000  Level FlightAware Transoceanic
Sun 12:19:00 PM 27.3924 -148.9075 238° Southwest 492 566 34,000  Level FlightAware Transoceanic
Sun 12:20:00 PM 27.3194 -149.0412 238° Southwest 492 566 34,000  Level FlightAware Transoceanic
Sun 12:21:00 PM 27.2462 -149.1747 238° Southwest 492 566 34,000  Level FlightAware Transoceanic
Sun 12:22:00 PM 27.1730 -149.3081 238° Southwest 492 566 34,000  Level FlightAware Transoceanic
Sun 12:23:00 PM 27.0996 -149.4413 238° Southwest 492 566 34,000  Level FlightAware Transoceanic
Sun 12:24:00 PM 27.0260 -149.5742 238° Southwest 492 566 34,000  Level FlightAware Transoceanic
Sun 12:25:00 PM 26.9524 -149.7071 238° Southwest 492 566 34,000  Level FlightAware Transoceanic
Sun 12:25:07 PM 26.9167 -149.7667 238° Southwest 489 563 34,000  Level Oakland Oceanic (ODAPS)
Sun 12:26:00 PM 26.8786 -149.8397 238° Southwest 492 566 34,000  Level FlightAware Transoceanic
Sun 12:27:00 PM 26.8047 -149.9722 238° Southwest 492 566 34,000  Level FlightAware Transoceanic
Sun 12:28:00 PM 26.7306 -150.1045 238° Southwest 492 566 34,000  Level FlightAware Transoceanic
Sun 12:29:00 PM 26.6565 -150.2366 238° Southwest 492 566 34,000  Level FlightAware Transoceanic
Sun 12:30:00 PM 26.5822 -150.3686 238° Southwest 492 566 34,000  Level FlightAware Transoceanic
Sun 12:31:00 PM 26.4780 -150.5493 238° Southwest 489 563 34,000  Level FlightAware Transoceanic
Sun 12:32:00 PM 26.4044 -150.6792 238° Southwest 489 563 34,000  Level FlightAware Transoceanic
Sun 12:33:00 PM 26.3308 -150.8089 238° Southwest 489 563 34,000  Level FlightAware Transoceanic
Sun 12:34:00 PM 26.2570 -150.9384 238° Southwest 489 563 34,000  Level FlightAware Transoceanic
Sun 12:35:00 PM 26.1832 -151.0678 237° Southwest 489 563 34,000  Level FlightAware Transoceanic
Sun 12:36:00 PM 26.1092 -151.1970 237° Southwest 489 563 34,000  Level FlightAware Transoceanic
Sun 12:37:00 PM 26.0351 -151.3261 237° Southwest 489 563 34,000  Level FlightAware Transoceanic
Sun 12:38:00 PM 25.9608 -151.4549 237° Southwest 489 563 34,000  Level FlightAware Transoceanic
Sun 12:38:59 PM 25.8833 -151.6000 237° Southwest 490 564 34,000  Level Oakland Oceanic (ODAPS)
Sun 12:39:00 PM 25.8865 -151.5836 237° Southwest 489 563 34,000  Level FlightAware Transoceanic
Sun 12:40:00 PM 25.8120 -151.7122 237° Southwest 489 563 34,000  Level FlightAware Transoceanic
Sun 12:41:00 PM 25.7375 -151.8406 237° Southwest 489 563 34,000  Level FlightAware Transoceanic
Sun 12:42:00 PM 25.6628 -151.9688 237° Southwest 489 563 34,000  Level FlightAware Transoceanic
Sun 12:43:00 PM 25.5880 -152.0969 237° Southwest 489 563 34,000  Level FlightAware Transoceanic
Sun 12:44:00 PM 25.5131 -152.2248 237° Southwest 489 563 34,000  Level FlightAware Transoceanic
Sun 12:45:00 PM 25.4358 -152.3642 237° Southwest 490 564 34,000  Level FlightAware Transoceanic
Sun 12:46:00 PM 25.3608 -152.4910 237° Southwest 490 564 34,000  Level FlightAware Transoceanic
Sun 12:47:00 PM 25.2857 -152.6176 237° Southwest 490 564 34,000  Level FlightAware Transoceanic
Sun 12:48:00 PM 25.2105 -152.7441 237° Southwest 490 564 34,000  Level FlightAware Transoceanic
Sun 12:49:00 PM 25.1352 -152.8705 237° Southwest 490 564 34,000  Level FlightAware Transoceanic
Sun 12:50:00 PM 25.0598 -152.9966 237° Southwest 490 564 34,000  Level FlightAware Transoceanic
Sun 12:51:00 PM 24.9843 -153.1227 236° Southwest 490 564 34,000  Level FlightAware Transoceanic
Sun 12:52:00 PM 24.9087 -153.2485 236° Southwest 490 564 34,000  Level FlightAware Transoceanic
Sun 12:53:00 PM 24.8330 -153.3743 236° Southwest 490 564 34,000  Level FlightAware Transoceanic
Sun 12:53:31 PM 24.8000 -153.4167 237° Southwest 492 566 34,000  Level Oakland Oceanic (ODAPS)
Sun 12:54:00 PM 24.7572 -153.4998 236° Southwest 490 564 34,000  Level FlightAware Transoceanic
Sun 12:55:00 PM 24.6812 -153.6252 236° Southwest 490 564 34,000  Level FlightAware Transoceanic
Sun 12:56:00 PM 24.6052 -153.7505 236° Southwest 490 564 34,000  Level FlightAware Transoceanic
Sun 12:57:00 PM 24.5290 -153.8756 236° Southwest 490 564 34,000  Level FlightAware Transoceanic
Sun 12:58:00 PM 24.4528 -154.0005 236° Southwest 490 564 34,000  Level FlightAware Transoceanic
Sun 12:59:00 PM 24.3000 -154.2500 236° Southwest 492 566 34,000  Level FlightAware Transoceanic
Sun 12:59:22 PM 24.2667 -154.2667 236° Southwest 470 541 34,000  Level Honolulu Center
Sun 01:00:00 PM 24.2307 -154.3627 236° Southwest 492 566 34,000  Level FlightAware Transoceanic
Sun 01:01:00 PM 24.1613 -154.4753 236° Southwest 492 566 34,000  Level FlightAware Transoceanic
Sun 01:01:22 PM 24.1000 -154.5000 232° Southwest 510 587 34,000  Level Honolulu Center
Sun 01:02:00 PM 24.0919 -154.5878 236° Southwest 492 566 34,000  Level FlightAware Transoceanic
Sun 01:02:22 PM 24.0000 -154.6000 222° Southwest 500 575 34,000  Level Honolulu Center
Sun 01:03:00 PM 24.0224 -154.7002 236° Southwest 492 566 34,000  Level FlightAware Transoceanic
Sun 01:03:22 PM 23.9000 -154.7167 227° Southwest 500 575 34,000  Level Honolulu Center
Sun 01:04:00 PM 23.9527 -154.8124 236° Southwest 492 566 34,000  Level FlightAware Transoceanic
Sun 01:04:22 PM 23.8000 -154.8167 222° Southwest 500 575 34,000  Level Honolulu Center
Sun 01:05:22 PM 23.7167 -154.9333 232° Southwest 500 575 34,000  Level Honolulu Center
Sun 01:06:23 PM 23.6167 -155.0500 227° Southwest 500 575 34,000  Level Honolulu Center
Sun 01:07:23 PM 23.5167 -155.1500 223° Southwest 500 575 34,000  Level Honolulu Center
Sun 01:08:23 PM 23.4333 -155.2667 232° Southwest 500 575 34,000  Level Honolulu Center
Sun 01:09:23 PM 23.3333 -155.3667 223° Southwest 490 564 34,000  Level Honolulu Center
Sun 01:10:23 PM 23.2333 -155.4833 227° Southwest 490 564 34,000  Level Honolulu Center
Sun 01:11:23 PM 23.1333 -155.5833 223° Southwest 490 564 34,000  Level Honolulu Center
Sun 01:12:24 PM 23.0500 -155.6833 228° Southwest 490 564 34,000  Level Honolulu Center
Sun 01:13:24 PM 22.9500 -155.8000 227° Southwest 490 564 34,000  Level Honolulu Center
Sun 01:14:24 PM 22.8500 -155.9000 223° Southwest 490 564 34,000  Level Honolulu Center
Sun 01:15:24 PM 22.7667 -156.0167 232° Southwest 490 564 34,000  Level Honolulu Center
Sun 01:16:24 PM 22.6667 -156.1167 223° Southwest 490 564 34,000  Level Honolulu Center
Sun 01:17:24 PM 22.5667 -156.2333 227° Southwest 490 564 34,000  Level Honolulu Center
Sun 01:18:24 PM 22.4667 -156.3333 223° Southwest 490 564 34,000 -150 Level Honolulu Center
Sun 01:19:24 PM 22.3833 -156.4333 228° Southwest 490 564 33,700 -1,500 Descending Honolulu Center
Sun 01:20:24 PM 22.2833 -156.5333 223° Southwest 490 564 31,000 -2,500 Descending Honolulu Center
Sun 01:21:24 PM 22.1833 -156.6500 227° Southwest 490 564 28,700 -1,537 Descending Honolulu Center
Sun 01:22:25 PM 22.1000 -156.7500 228° Southwest 490 564 27,900 -793 Descending Honolulu Center
Sun 01:23:25 PM 22.0167 -156.8500 228° Southwest 490 564 27,100 -750 Descending Honolulu Center
Sun 01:24:25 PM 21.9167 -156.9500 223° Southwest 490 564 26,400 -750 Descending Honolulu Center
Sun 01:25:25 PM 21.8167 -157.0500 223° Southwest 480 552 25,600 -1,050 Descending Honolulu Center
Sun 01:26:25 PM 21.7167 -157.1667 227° Southwest 460 529 24,300 -1,900 Descending Honolulu Center
Sun 01:27:25 PM 21.6333 -157.2667 228° Southwest 440 506 21,800 -2,388 Descending Honolulu Center
Sun 01:33:17 PM 21.3050 -157.7640 228° Southwest 293 337 7,900 -2,212 Descending FlightAware ADS-B
Sun 01:33:42 PM 21.2880 -157.7920 237° Southwest 293 337 7,900 -750 Level FlightAware ADS-B
Sun 01:33:57 PM 21.2650 -157.8220 231° Southwest 275 316 7,400 -1,067 Descending FlightAware ADS-B
Sun 01:34:27 PM 21.2390 -157.8460 221° Southwest 273 314 7,100 -1,385 Descending FlightAware ADS-B
Sun 01:35:02 PM 21.2060 -157.8810 225° Southwest 267 307 5,900 -2,847 Descending FlightAware ADS-B
Sun 01:35:26 PM 21.1667 -157.9000 225° Southwest 250 288 4,300 -2,965 Descending Honolulu Center
Sun 01:36:27 PM 21.1833 -157.9667 285° West 260 299 1,700 -2,557 Descending Honolulu Center

Login

Don't have an account? Register now (free) for customized features, flight alerts, and more!